sensor_id;sensor_type;location;lat;lon;timestamp;temperature;humidity
30889;DHT22;51092;50.874;7.024;2023-07-13T00:03:17;17.70;63.00
30889;DHT22;51092;50.874;7.024;2023-07-13T00:04:22;17.80;62.60
30889;DHT22;51092;50.874;7.024;2023-07-13T00:05:24;17.80;62.60
30889;DHT22;51092;50.874;7.024;2023-07-13T00:06:27;17.80;62.40
30889;DHT22;51092;50.874;7.024;2023-07-13T00:07:34;17.80;62.40
30889;DHT22;51092;50.874;7.024;2023-07-13T00:08:36;17.80;62.50
30889;DHT22;51092;50.874;7.024;2023-07-13T00:09:38;17.80;62.70
30889;DHT22;51092;50.874;7.024;2023-07-13T00:10:41;17.70;62.90
30889;DHT22;51092;50.874;7.024;2023-07-13T00:11:43;17.80;62.60
30889;DHT22;51092;50.874;7.024;2023-07-13T00:12:46;17.70;62.90
30889;DHT22;51092;50.874;7.024;2023-07-13T00:13:47;17.70;63.10
30889;DHT22;51092;50.874;7.024;2023-07-13T00:14:50;17.70;63.00
30889;DHT22;51092;50.874;7.024;2023-07-13T00:15:51;17.70;63.10
30889;DHT22;51092;50.874;7.024;2023-07-13T00:16:55;17.70;63.20
30889;DHT22;51092;50.874;7.024;2023-07-13T00:17:57;17.70;63.40
30889;DHT22;51092;50.874;7.024;2023-07-13T00:19:03;17.60;63.90
30889;DHT22;51092;50.874;7.024;2023-07-13T00:20:39;17.60;64.40
30889;DHT22;51092;50.874;7.024;2023-07-13T00:21:42;17.60;64.20
30889;DHT22;51092;50.874;7.024;2023-07-13T00:22:44;17.60;64.20
30889;DHT22;51092;50.874;7.024;2023-07-13T00:23:46;17.60;64.40
30889;DHT22;51092;50.874;7.024;2023-07-13T00:24:48;17.50;65.30
30889;DHT22;51092;50.874;7.024;2023-07-13T00:25:50;17.40;65.60
30889;DHT22;51092;50.874;7.024;2023-07-13T00:26:52;17.40;65.80
30889;DHT22;51092;50.874;7.024;2023-07-13T00:27:55;17.40;65.70
30889;DHT22;51092;50.874;7.024;2023-07-13T00:28:56;17.40;66.60
30889;DHT22;51092;50.874;7.024;2023-07-13T00:29:59;17.30;66.70
30889;DHT22;51092;50.874;7.024;2023-07-13T00:31:00;17.40;66.90
30889;DHT22;51092;50.874;7.024;2023-07-13T00:32:04;17.40;66.30
30889;DHT22;51092;50.874;7.024;2023-07-13T00:33:05;17.40;66.20
30889;DHT22;51092;50.874;7.024;2023-07-13T00:34:09;17.40;65.80
30889;DHT22;51092;50.874;7.024;2023-07-13T00:35:13;17.40;65.90
30889;DHT22;51092;50.874;7.024;2023-07-13T00:36:16;17.40;66.00
30889;DHT22;51092;50.874;7.024;2023-07-13T00:37:18;17.40;66.60
30889;DHT22;51092;50.874;7.024;2023-07-13T00:38:20;17.40;66.60
30889;DHT22;51092;50.874;7.024;2023-07-13T00:39:22;17.40;66.20
30889;DHT22;51092;50.874;7.024;2023-07-13T00:40:24;17.30;67.10
30889;DHT22;51092;50.874;7.024;2023-07-13T00:41:26;17.30;67.20
30889;DHT22;51092;50.874;7.024;2023-07-13T00:42:28;17.30;67.80
30889;DHT22;51092;50.874;7.024;2023-07-13T00:43:31;17.30;67.80
30889;DHT22;51092;50.874;7.024;2023-07-13T00:44:33;17.30;67.40
30889;DHT22;51092;50.874;7.024;2023-07-13T00:47:14;17.30;67.80
30889;DHT22;51092;50.874;7.024;2023-07-13T00:48:20;17.30;68.10
30889;DHT22;51092;50.874;7.024;2023-07-13T00:49:26;17.30;68.10
30889;DHT22;51092;50.874;7.024;2023-07-13T00:50:30;17.30;70.10
30889;DHT22;51092;50.874;7.024;2023-07-13T00:51:35;17.30;70.00
30889;DHT22;51092;50.874;7.024;2023-07-13T00:52:41;17.20;71.50
30889;DHT22;51092;50.874;7.024;2023-07-13T00:53:44;17.20;72.10
30889;DHT22;51092;50.874;7.024;2023-07-13T00:54:47;17.20;71.40
30889;DHT22;51092;50.874;7.024;2023-07-13T00:55:50;17.10;72.50
30889;DHT22;51092;50.874;7.024;2023-07-13T00:56:55;17.10;72.50
30889;DHT22;51092;50.874;7.024;2023-07-13T00:57:57;17.10;72.50
30889;DHT22;51092;50.874;7.024;2023-07-13T00:59:02;17.00;73.20
30889;DHT22;51092;50.874;7.024;2023-07-13T01:00:06;17.00;73.00
30889;DHT22;51092;50.874;7.024;2023-07-13T01:01:11;16.90;73.50
30889;DHT22;51092;50.874;7.024;2023-07-13T01:02:14;16.90;74.10
30889;DHT22;51092;50.874;7.024;2023-07-13T01:03:19;16.90;74.80
30889;DHT22;51092;50.874;7.024;2023-07-13T01:04:24;16.90;75.40
30889;DHT22;51092;50.874;7.024;2023-07-13T01:05:34;16.80;76.00
30889;DHT22;51092;50.874;7.024;2023-07-13T01:06:37;16.80;75.50
30889;DHT22;51092;50.874;7.024;2023-07-13T01:07:40;16.80;75.80
30889;DHT22;51092;50.874;7.024;2023-07-13T01:08:42;16.70;75.80
30889;DHT22;51092;50.874;7.024;2023-07-13T01:09:45;16.70;75.80
30889;DHT22;51092;50.874;7.024;2023-07-13T01:10:52;16.60;76.40
30889;DHT22;51092;50.874;7.024;2023-07-13T01:11:54;16.60;76.70
30889;DHT22;51092;50.874;7.024;2023-07-13T01:12:56;16.50;77.20
30889;DHT22;51092;50.874;7.024;2023-07-13T01:13:58;16.60;77.40
30889;DHT22;51092;50.874;7.024;2023-07-13T01:15:01;16.50;77.60
30889;DHT22;51092;50.874;7.024;2023-07-13T01:16:19;16.50;77.70
30889;DHT22;51092;50.874;7.024;2023-07-13T01:17:21;16.50;77.90
30889;DHT22;51092;50.874;7.024;2023-07-13T01:18:25;16.50;78.20
30889;DHT22;51092;50.874;7.024;2023-07-13T01:19:35;16.50;78.20
30889;DHT22;51092;50.874;7.024;2023-07-13T01:20:39;16.50;78.50
30889;DHT22;51092;50.874;7.024;2023-07-13T01:21:42;16.50;78.30
30889;DHT22;51092;50.874;7.024;2023-07-13T01:22:44;16.40;78.90
30889;DHT22;51092;50.874;7.024;2023-07-13T01:23:46;16.40;78.70
30889;DHT22;51092;50.874;7.024;2023-07-13T01:24:49;16.40;79.20
30889;DHT22;51092;50.874;7.024;2023-07-13T01:25:51;16.40;78.40
30889;DHT22;51092;50.874;7.024;2023-07-13T01:26:53;16.40;79.20
30889;DHT22;51092;50.874;7.024;2023-07-13T01:27:55;16.40;78.40
30889;DHT22;51092;50.874;7.024;2023-07-13T01:28:57;16.40;78.70
30889;DHT22;51092;50.874;7.024;2023-07-13T01:29:59;16.40;77.70
30889;DHT22;51092;50.874;7.024;2023-07-13T01:31:05;16.40;77.20
30889;DHT22;51092;50.874;7.024;2023-07-13T01:32:08;16.40;77.70
30889;DHT22;51092;50.874;7.024;2023-07-13T01:33:11;16.40;77.50
30889;DHT22;51092;50.874;7.024;2023-07-13T01:34:13;16.40;77.30
30889;DHT22;51092;50.874;7.024;2023-07-13T01:35:16;16.40;77.80
30889;DHT22;51092;50.874;7.024;2023-07-13T01:36:17;16.50;77.40
30889;DHT22;51092;50.874;7.024;2023-07-13T01:37:24;16.50;76.80
30889;DHT22;51092;50.874;7.024;2023-07-13T01:38:27;16.60;75.90
30889;DHT22;51092;50.874;7.024;2023-07-13T01:39:29;16.60;74.80
30889;DHT22;51092;50.874;7.024;2023-07-13T01:40:31;16.70;74.90
30889;DHT22;51092;50.874;7.024;2023-07-13T01:41:33;16.70;74.40
30889;DHT22;51092;50.874;7.024;2023-07-13T01:42:36;16.70;73.80
30889;DHT22;51092;50.874;7.024;2023-07-13T01:43:38;16.70;74.90
30889;DHT22;51092;50.874;7.024;2023-07-13T01:44:41;16.80;73.40
30889;DHT22;51092;50.874;7.024;2023-07-13T01:45:43;16.80;73.60
30889;DHT22;51092;50.874;7.024;2023-07-13T01:46:46;16.80;73.40
30889;DHT22;51092;50.874;7.024;2023-07-13T01:47:47;16.80;73.50
30889;DHT22;51092;50.874;7.024;2023-07-13T01:48:49;16.80;73.20
30889;DHT22;51092;50.874;7.024;2023-07-13T01:49:51;16.80;73.10
30889;DHT22;51092;50.874;7.024;2023-07-13T01:50:53;16.80;73.40
30889;DHT22;51092;50.874;7.024;2023-07-13T01:51:55;16.70;73.70
30889;DHT22;51092;50.874;7.024;2023-07-13T01:52:58;16.70;73.70
30889;DHT22;51092;50.874;7.024;2023-07-13T01:54:01;16.60;74.60
30889;DHT22;51092;50.874;7.024;2023-07-13T01:55:03;16.60;74.80
30889;DHT22;51092;50.874;7.024;2023-07-13T01:56:06;16.60;74.50
30889;DHT22;51092;50.874;7.024;2023-07-13T01:57:07;16.50;74.80
30889;DHT22;51092;50.874;7.024;2023-07-13T01:58:10;16.50;75.20
30889;DHT22;51092;50.874;7.024;2023-07-13T01:59:11;16.40;75.70
30889;DHT22;51092;50.874;7.024;2023-07-13T02:00:15;16.40;76.00
30889;DHT22;51092;50.874;7.024;2023-07-13T02:01:16;16.30;76.80
30889;DHT22;51092;50.874;7.024;2023-07-13T02:02:19;16.20;77.20
30889;DHT22;51092;50.874;7.024;2023-07-13T02:03:20;16.20;78.20
30889;DHT22;51092;50.874;7.024;2023-07-13T02:04:23;16.20;78.70
30889;DHT22;51092;50.874;7.024;2023-07-13T02:05:24;16.20;78.80
30889;DHT22;51092;50.874;7.024;2023-07-13T02:06:27;16.20;79.10
30889;DHT22;51092;50.874;7.024;2023-07-13T02:07:28;16.10;79.20
30889;DHT22;51092;50.874;7.024;2023-07-13T02:08:33;16.10;80.10
30889;DHT22;51092;50.874;7.024;2023-07-13T02:09:34;16.10;80.60
30889;DHT22;51092;50.874;7.024;2023-07-13T02:10:37;16.10;81.90
30889;DHT22;51092;50.874;7.024;2023-07-13T02:11:39;16.10;83.00
30889;DHT22;51092;50.874;7.024;2023-07-13T02:12:42;16.10;82.70
30889;DHT22;51092;50.874;7.024;2023-07-13T02:13:43;16.00;83.20
30889;DHT22;51092;50.874;7.024;2023-07-13T02:14:46;16.00;83.70
30889;DHT22;51092;50.874;7.024;2023-07-13T02:15:50;16.00;82.80
30889;DHT22;51092;50.874;7.024;2023-07-13T02:16:52;15.90;82.80
30889;DHT22;51092;50.874;7.024;2023-07-13T02:17:54;15.90;83.20
30889;DHT22;51092;50.874;7.024;2023-07-13T02:18:58;15.80;84.60
30889;DHT22;51092;50.874;7.024;2023-07-13T02:19:59;15.90;84.50
30889;DHT22;51092;50.874;7.024;2023-07-13T02:21:02;15.90;84.20
30889;DHT22;51092;50.874;7.024;2023-07-13T02:22:04;15.90;84.60
30889;DHT22;51092;50.874;7.024;2023-07-13T02:23:07;15.80;85.20
30889;DHT22;51092;50.874;7.024;2023-07-13T02:24:09;15.90;86.40
30889;DHT22;51092;50.874;7.024;2023-07-13T02:25:18;15.80;88.20
30889;DHT22;51092;50.874;7.024;2023-07-13T02:26:20;15.80;88.10
30889;DHT22;51092;50.874;7.024;2023-07-13T02:27:22;15.90;87.70
30889;DHT22;51092;50.874;7.024;2023-07-13T02:28:24;15.80;88.90
30889;DHT22;51092;50.874;7.024;2023-07-13T02:29:27;15.90;89.10
30889;DHT22;51092;50.874;7.024;2023-07-13T02:30:28;15.80;88.90
30889;DHT22;51092;50.874;7.024;2023-07-13T02:31:31;15.80;88.30
30889;DHT22;51092;50.874;7.024;2023-07-13T02:32:33;15.90;89.10
30889;DHT22;51092;50.874;7.024;2023-07-13T02:33:36;15.90;88.60
30889;DHT22;51092;50.874;7.024;2023-07-13T02:34:40;15.90;88.10
30889;DHT22;51092;50.874;7.024;2023-07-13T02:35:42;15.90;87.30
30889;DHT22;51092;50.874;7.024;2023-07-13T02:36:44;15.90;86.40
30889;DHT22;51092;50.874;7.024;2023-07-13T02:37:47;15.90;88.20
30889;DHT22;51092;50.874;7.024;2023-07-13T02:38:49;15.90;88.00
30889;DHT22;51092;50.874;7.024;2023-07-13T02:39:54;15.90;88.50
30889;DHT22;51092;50.874;7.024;2023-07-13T02:40:55;15.90;88.80
30889;DHT22;51092;50.874;7.024;2023-07-13T02:41:57;15.90;89.80
30889;DHT22;51092;50.874;7.024;2023-07-13T02:42:58;15.80;90.10
30889;DHT22;51092;50.874;7.024;2023-07-13T02:44:02;15.90;90.40
30889;DHT22;51092;50.874;7.024;2023-07-13T02:45:04;15.90;90.70
30889;DHT22;51092;50.874;7.024;2023-07-13T02:46:07;15.90;90.70
30889;DHT22;51092;50.874;7.024;2023-07-13T02:47:09;15.90;89.70
30889;DHT22;51092;50.874;7.024;2023-07-13T02:48:14;15.90;88.40
30889;DHT22;51092;50.874;7.024;2023-07-13T02:49:15;15.90;90.00
30889;DHT22;51092;50.874;7.024;2023-07-13T02:50:18;15.90;87.70
30889;DHT22;51092;50.874;7.024;2023-07-13T02:51:20;15.90;87.40
30889;DHT22;51092;50.874;7.024;2023-07-13T02:52:21;15.90;88.30
30889;DHT22;51092;50.874;7.024;2023-07-13T02:53:24;15.90;86.80
30889;DHT22;51092;50.874;7.024;2023-07-13T02:54:26;15.90;86.70
30889;DHT22;51092;50.874;7.024;2023-07-13T02:55:30;15.90;86.00
30889;DHT22;51092;50.874;7.024;2023-07-13T02:56:32;15.90;86.00
30889;DHT22;51092;50.874;7.024;2023-07-13T02:57:34;15.90;86.00
30889;DHT22;51092;50.874;7.024;2023-07-13T02:58:35;15.90;85.30
30889;DHT22;51092;50.874;7.024;2023-07-13T02:59:39;15.90;85.20
30889;DHT22;51092;50.874;7.024;2023-07-13T03:00:40;15.90;84.90
30889;DHT22;51092;50.874;7.024;2023-07-13T03:01:42;15.90;84.80
30889;DHT22;51092;50.874;7.024;2023-07-13T03:02:44;15.90;84.40
30889;DHT22;51092;50.874;7.024;2023-07-13T03:03:47;15.90;84.40
30889;DHT22;51092;50.874;7.024;2023-07-13T03:04:49;15.80;84.60
30889;DHT22;51092;50.874;7.024;2023-07-13T03:05:58;15.80;84.90
30889;DHT22;51092;50.874;7.024;2023-07-13T03:07:00;15.90;83.70
30889;DHT22;51092;50.874;7.024;2023-07-13T03:08:03;15.90;84.80
30889;DHT22;51092;50.874;7.024;2023-07-13T03:09:05;15.90;83.70
30889;DHT22;51092;50.874;7.024;2023-07-13T03:10:08;15.90;82.80
30889;DHT22;51092;50.874;7.024;2023-07-13T03:11:14;15.90;83.30
30889;DHT22;51092;50.874;7.024;2023-07-13T03:12:17;15.80;83.40
30889;DHT22;51092;50.874;7.024;2023-07-13T03:13:19;15.80;82.40
30889;DHT22;51092;50.874;7.024;2023-07-13T03:14:22;15.80;81.50
30889;DHT22;51092;50.874;7.024;2023-07-13T03:15:23;15.80;81.40
30889;DHT22;51092;50.874;7.024;2023-07-13T03:16:26;15.80;81.20
30889;DHT22;51092;50.874;7.024;2023-07-13T03:17:27;15.90;79.30
30889;DHT22;51092;50.874;7.024;2023-07-13T03:18:30;16.00;78.30
30889;DHT22;51092;50.874;7.024;2023-07-13T03:19:31;16.00;77.50
30889;DHT22;51092;50.874;7.024;2023-07-13T03:20:33;16.00;77.40
30889;DHT22;51092;50.874;7.024;2023-07-13T03:21:35;16.00;77.30
30889;DHT22;51092;50.874;7.024;2023-07-13T03:22:37;16.10;76.90
30889;DHT22;51092;50.874;7.024;2023-07-13T03:23:38;16.10;76.80
30889;DHT22;51092;50.874;7.024;2023-07-13T03:24:40;16.00;77.10
30889;DHT22;51092;50.874;7.024;2023-07-13T03:25:42;16.00;77.30
30889;DHT22;51092;50.874;7.024;2023-07-13T03:26:47;16.00;77.30
30889;DHT22;51092;50.874;7.024;2023-07-13T03:27:50;15.90;77.50
30889;DHT22;51092;50.874;7.024;2023-07-13T03:28:52;15.90;77.60
30889;DHT22;51092;50.874;7.024;2023-07-13T03:29:54;15.90;77.80
30889;DHT22;51092;50.874;7.024;2023-07-13T03:31:00;15.80;78.10
30889;DHT22;51092;50.874;7.024;2023-07-13T03:32:03;15.80;78.30
30889;DHT22;51092;50.874;7.024;2023-07-13T03:33:06;15.80;78.60
30889;DHT22;51092;50.874;7.024;2023-07-13T03:34:08;15.70;78.90
30889;DHT22;51092;50.874;7.024;2023-07-13T03:35:10;15.80;79.30
30889;DHT22;51092;50.874;7.024;2023-07-13T03:36:14;15.80;79.00
30889;DHT22;51092;50.874;7.024;2023-07-13T03:37:20;15.70;79.20
30889;DHT22;51092;50.874;7.024;2023-07-13T03:38:21;15.70;79.20
30889;DHT22;51092;50.874;7.024;2023-07-13T03:39:24;15.70;79.40
30889;DHT22;51092;50.874;7.024;2023-07-13T03:40:26;15.70;79.60
30889;DHT22;51092;50.874;7.024;2023-07-13T03:41:28;15.70;80.10
30889;DHT22;51092;50.874;7.024;2023-07-13T03:42:31;15.70;80.10
30889;DHT22;51092;50.874;7.024;2023-07-13T03:43:33;15.70;80.30
30889;DHT22;51092;50.874;7.024;2023-07-13T03:44:35;15.70;80.60
30889;DHT22;51092;50.874;7.024;2023-07-13T03:45:38;15.70;82.10
30889;DHT22;51092;50.874;7.024;2023-07-13T03:46:40;15.70;81.50
30889;DHT22;51092;50.874;7.024;2023-07-13T03:47:42;15.70;81.90
30889;DHT22;51092;50.874;7.024;2023-07-13T03:48:46;15.70;81.80
30889;DHT22;51092;50.874;7.024;2023-07-13T03:49:48;15.70;82.00
30889;DHT22;51092;50.874;7.024;2023-07-13T03:50:50;15.70;81.80
30889;DHT22;51092;50.874;7.024;2023-07-13T03:51:50;15.60;82.50
30889;DHT22;51092;50.874;7.024;2023-07-13T03:52:52;15.60;82.60
30889;DHT22;51092;50.874;7.024;2023-07-13T03:53:54;15.60;82.80
30889;DHT22;51092;50.874;7.024;2023-07-13T03:54:56;15.70;82.40
30889;DHT22;51092;50.874;7.024;2023-07-13T03:55:58;15.70;83.00
30889;DHT22;51092;50.874;7.024;2023-07-13T03:56:59;15.80;82.50
30889;DHT22;51092;50.874;7.024;2023-07-13T03:58:26;15.70;82.50
30889;DHT22;51092;50.874;7.024;2023-07-13T03:59:29;15.80;81.50
30889;DHT22;51092;50.874;7.024;2023-07-13T04:00:30;15.80;82.30
30889;DHT22;51092;50.874;7.024;2023-07-13T04:01:33;15.80;82.30
30889;DHT22;51092;50.874;7.024;2023-07-13T04:02:34;15.80;81.00
30889;DHT22;51092;50.874;7.024;2023-07-13T04:03:38;15.80;81.10
30889;DHT22;51092;50.874;7.024;2023-07-13T04:04:40;15.90;80.50
30889;DHT22;51092;50.874;7.024;2023-07-13T04:05:42;15.90;80.40
30889;DHT22;51092;50.874;7.024;2023-07-13T04:06:44;15.90;80.30
30889;DHT22;51092;50.874;7.024;2023-07-13T04:07:47;15.90;80.00
30889;DHT22;51092;50.874;7.024;2023-07-13T04:08:50;16.00;79.60
30889;DHT22;51092;50.874;7.024;2023-07-13T04:09:53;16.00;79.60
30889;DHT22;51092;50.874;7.024;2023-07-13T04:10:55;16.00;79.70
30889;DHT22;51092;50.874;7.024;2023-07-13T04:11:57;15.90;80.20
30889;DHT22;51092;50.874;7.024;2023-07-13T04:12:59;15.90;80.60
30889;DHT22;51092;50.874;7.024;2023-07-13T04:14:03;16.00;80.20
30889;DHT22;51092;50.874;7.024;2023-07-13T04:15:06;15.90;81.10
30889;DHT22;51092;50.874;7.024;2023-07-13T04:16:09;15.90;81.40
30889;DHT22;51092;50.874;7.024;2023-07-13T04:17:10;15.90;81.00
30889;DHT22;51092;50.874;7.024;2023-07-13T04:18:13;15.90;81.50
30889;DHT22;51092;50.874;7.024;2023-07-13T04:19:15;15.90;81.40
30889;DHT22;51092;50.874;7.024;2023-07-13T04:20:17;15.90;81.20
30889;DHT22;51092;50.874;7.024;2023-07-13T04:21:21;15.90;81.60
30889;DHT22;51092;50.874;7.024;2023-07-13T04:22:24;15.90;81.90
30889;DHT22;51092;50.874;7.024;2023-07-13T04:23:25;15.90;81.50
30889;DHT22;51092;50.874;7.024;2023-07-13T04:24:28;16.00;81.20
30889;DHT22;51092;50.874;7.024;2023-07-13T04:25:29;15.90;81.70
30889;DHT22;51092;50.874;7.024;2023-07-13T04:26:32;16.00;81.90
30889;DHT22;51092;50.874;7.024;2023-07-13T04:27:35;16.00;81.70
30889;DHT22;51092;50.874;7.024;2023-07-13T04:28:40;16.00;81.80
30889;DHT22;51092;50.874;7.024;2023-07-13T04:29:43;16.00;81.60
30889;DHT22;51092;50.874;7.024;2023-07-13T04:30:46;16.00;82.00
30889;DHT22;51092;50.874;7.024;2023-07-13T04:31:47;16.00;81.90
30889;DHT22;51092;50.874;7.024;2023-07-13T04:32:51;16.00;81.80
30889;DHT22;51092;50.874;7.024;2023-07-13T04:33:53;16.00;82.10
30889;DHT22;51092;50.874;7.024;2023-07-13T04:34:55;16.10;81.40
30889;DHT22;51092;50.874;7.024;2023-07-13T04:35:58;16.10;81.40
30889;DHT22;51092;50.874;7.024;2023-07-13T04:37:03;16.10;81.80
30889;DHT22;51092;50.874;7.024;2023-07-13T04:38:05;16.10;81.60
30889;DHT22;51092;50.874;7.024;2023-07-13T04:39:08;16.10;81.20
30889;DHT22;51092;50.874;7.024;2023-07-13T04:40:10;16.10;81.40
30889;DHT22;51092;50.874;7.024;2023-07-13T04:41:14;16.10;81.50
30889;DHT22;51092;50.874;7.024;2023-07-13T04:42:15;16.10;81.30
30889;DHT22;51092;50.874;7.024;2023-07-13T04:43:17;16.10;81.50
30889;DHT22;51092;50.874;7.024;2023-07-13T04:44:18;16.10;81.60
30889;DHT22;51092;50.874;7.024;2023-07-13T04:45:21;16.10;81.90
30889;DHT22;51092;50.874;7.024;2023-07-13T04:46:25;16.10;81.60
30889;DHT22;51092;50.874;7.024;2023-07-13T04:47:30;16.10;81.30
30889;DHT22;51092;50.874;7.024;2023-07-13T04:48:32;16.10;81.50
30889;DHT22;51092;50.874;7.024;2023-07-13T04:49:33;16.10;81.40
30889;DHT22;51092;50.874;7.024;2023-07-13T04:50:36;16.20;81.50
30889;DHT22;51092;50.874;7.024;2023-07-13T04:51:38;16.20;81.20
30889;DHT22;51092;50.874;7.024;2023-07-13T04:52:41;16.20;81.00
30889;DHT22;51092;50.874;7.024;2023-07-13T04:53:43;16.20;80.70
30889;DHT22;51092;50.874;7.024;2023-07-13T04:54:45;16.20;81.20
30889;DHT22;51092;50.874;7.024;2023-07-13T04:55:47;16.30;80.90
30889;DHT22;51092;50.874;7.024;2023-07-13T04:56:50;16.30;80.20
30889;DHT22;51092;50.874;7.024;2023-07-13T04:57:52;16.30;80.30
30889;DHT22;51092;50.874;7.024;2023-07-13T04:58:54;16.30;80.60
30889;DHT22;51092;50.874;7.024;2023-07-13T04:59:57;16.30;80.50
30889;DHT22;51092;50.874;7.024;2023-07-13T05:01:04;16.30;80.20
30889;DHT22;51092;50.874;7.024;2023-07-13T05:02:06;16.30;80.10
30889;DHT22;51092;50.874;7.024;2023-07-13T05:03:08;16.30;80.40
30889;DHT22;51092;50.874;7.024;2023-07-13T05:04:09;16.30;80.90
30889;DHT22;51092;50.874;7.024;2023-07-13T05:05:11;16.30;80.50
30889;DHT22;51092;50.874;7.024;2023-07-13T05:06:12;16.30;80.70
30889;DHT22;51092;50.874;7.024;2023-07-13T05:07:15;16.30;80.30
30889;DHT22;51092;50.874;7.024;2023-07-13T05:08:17;16.40;80.30
30889;DHT22;51092;50.874;7.024;2023-07-13T05:09:19;16.40;80.30
30889;DHT22;51092;50.874;7.024;2023-07-13T05:10:22;16.40;80.60
30889;DHT22;51092;50.874;7.024;2023-07-13T05:11:24;16.40;80.20
30889;DHT22;51092;50.874;7.024;2023-07-13T05:12:27;16.40;79.80
30889;DHT22;51092;50.874;7.024;2023-07-13T05:13:28;16.40;80.20
30889;DHT22;51092;50.874;7.024;2023-07-13T05:14:31;16.40;80.40
30889;DHT22;51092;50.874;7.024;2023-07-13T05:15:33;16.40;80.10
30889;DHT22;51092;50.874;7.024;2023-07-13T05:16:37;16.50;80.00
30889;DHT22;51092;50.874;7.024;2023-07-13T05:17:38;16.50;79.80
30889;DHT22;51092;50.874;7.024;2023-07-13T05:18:41;16.50;80.00
30889;DHT22;51092;50.874;7.024;2023-07-13T05:19:43;16.50;80.10
30889;DHT22;51092;50.874;7.024;2023-07-13T05:20:46;16.50;79.50
30889;DHT22;51092;50.874;7.024;2023-07-13T05:21:47;16.60;79.00
30889;DHT22;51092;50.874;7.024;2023-07-13T05:22:50;16.60;79.00
30889;DHT22;51092;50.874;7.024;2023-07-13T05:23:51;16.60;79.40
30889;DHT22;51092;50.874;7.024;2023-07-13T05:24:54;16.60;79.50
30889;DHT22;51092;50.874;7.024;2023-07-13T05:25:56;16.60;79.30
30889;DHT22;51092;50.874;7.024;2023-07-13T05:26:58;16.70;79.40
30889;DHT22;51092;50.874;7.024;2023-07-13T05:28:00;16.70;79.10
30889;DHT22;51092;50.874;7.024;2023-07-13T05:29:02;16.70;78.70
30889;DHT22;51092;50.874;7.024;2023-07-13T05:30:05;16.70;79.10
30889;DHT22;51092;50.874;7.024;2023-07-13T05:31:08;16.80;79.20
30889;DHT22;51092;50.874;7.024;2023-07-13T05:32:12;16.80;78.50
30889;DHT22;51092;50.874;7.024;2023-07-13T05:33:14;16.80;78.10
30889;DHT22;51092;50.874;7.024;2023-07-13T05:34:16;16.90;77.90
30889;DHT22;51092;50.874;7.024;2023-07-13T05:35:18;17.00;77.20
30889;DHT22;51092;50.874;7.024;2023-07-13T05:36:20;17.00;76.60
30889;DHT22;51092;50.874;7.024;2023-07-13T05:37:23;17.00;76.30
30889;DHT22;51092;50.874;7.024;2023-07-13T05:38:24;17.10;76.50
30889;DHT22;51092;50.874;7.024;2023-07-13T05:39:27;17.10;76.00
30889;DHT22;51092;50.874;7.024;2023-07-13T05:40:29;17.10;75.60
30889;DHT22;51092;50.874;7.024;2023-07-13T05:41:31;17.10;75.50
30889;DHT22;51092;50.874;7.024;2023-07-13T05:42:33;17.20;75.80
30889;DHT22;51092;50.874;7.024;2023-07-13T05:43:35;17.20;75.80
30889;DHT22;51092;50.874;7.024;2023-07-13T05:44:37;17.30;75.70
30889;DHT22;51092;50.874;7.024;2023-07-13T05:45:40;17.30;74.50
30889;DHT22;51092;50.874;7.024;2023-07-13T05:46:42;17.40;74.50
30889;DHT22;51092;50.874;7.024;2023-07-13T05:47:46;17.50;73.50
30889;DHT22;51092;50.874;7.024;2023-07-13T05:48:48;17.40;73.80
30889;DHT22;51092;50.874;7.024;2023-07-13T05:49:51;17.40;73.70
30889;DHT22;51092;50.874;7.024;2023-07-13T05:50:52;17.40;73.50
30889;DHT22;51092;50.874;7.024;2023-07-13T05:51:55;17.50;73.30
30889;DHT22;51092;50.874;7.024;2023-07-13T05:52:56;17.30;73.60
30889;DHT22;51092;50.874;7.024;2023-07-13T05:53:59;17.30;73.80
30889;DHT22;51092;50.874;7.024;2023-07-13T05:55:01;17.50;73.00
30889;DHT22;51092;50.874;7.024;2023-07-13T05:56:04;17.50;72.80
30889;DHT22;51092;50.874;7.024;2023-07-13T05:57:06;17.50;72.70
30889;DHT22;51092;50.874;7.024;2023-07-13T05:58:08;17.40;72.70
30889;DHT22;51092;50.874;7.024;2023-07-13T05:59:10;17.50;72.80
30889;DHT22;51092;50.874;7.024;2023-07-13T06:00:13;17.50;72.90
30889;DHT22;51092;50.874;7.024;2023-07-13T06:01:15;17.50;73.10
30889;DHT22;51092;50.874;7.024;2023-07-13T06:02:18;17.50;73.00
30889;DHT22;51092;50.874;7.024;2023-07-13T06:03:21;17.60;72.80
30889;DHT22;51092;50.874;7.024;2023-07-13T06:04:24;17.60;72.70
30889;DHT22;51092;50.874;7.024;2023-07-13T06:05:26;17.70;72.20
30889;DHT22;51092;50.874;7.024;2023-07-13T06:06:29;17.70;72.30
30889;DHT22;51092;50.874;7.024;2023-07-13T06:07:30;17.50;72.80
30889;DHT22;51092;50.874;7.024;2023-07-13T06:08:32;17.50;73.00
30889;DHT22;51092;50.874;7.024;2023-07-13T06:09:33;17.50;73.00
30889;DHT22;51092;50.874;7.024;2023-07-13T06:10:35;17.40;73.50
30889;DHT22;51092;50.874;7.024;2023-07-13T06:11:38;17.40;74.00
30889;DHT22;51092;50.874;7.024;2023-07-13T06:12:40;17.50;73.80
30889;DHT22;51092;50.874;7.024;2023-07-13T06:13:43;17.50;73.50
30889;DHT22;51092;50.874;7.024;2023-07-13T06:14:44;17.60;73.20
30889;DHT22;51092;50.874;7.024;2023-07-13T06:15:48;17.60;73.50
30889;DHT22;51092;50.874;7.024;2023-07-13T06:16:50;17.70;73.00
30889;DHT22;51092;50.874;7.024;2023-07-13T06:17:52;17.60;73.10
30889;DHT22;51092;50.874;7.024;2023-07-13T06:18:55;17.60;73.20
30889;DHT22;51092;50.874;7.024;2023-07-13T06:21:06;17.80;72.50
30889;DHT22;51092;50.874;7.024;2023-07-13T06:22:09;17.80;72.30
30889;DHT22;51092;50.874;7.024;2023-07-13T06:23:10;17.90;72.00
30889;DHT22;51092;50.874;7.024;2023-07-13T06:24:13;17.80;72.00
30889;DHT22;51092;50.874;7.024;2023-07-13T06:25:15;17.80;72.20
30889;DHT22;51092;50.874;7.024;2023-07-13T06:26:18;17.80;73.00
30889;DHT22;51092;50.874;7.024;2023-07-13T06:27:20;17.80;72.30
30889;DHT22;51092;50.874;7.024;2023-07-13T06:28:22;17.80;72.70
30889;DHT22;51092;50.874;7.024;2023-07-13T06:29:24;17.90;72.50
30889;DHT22;51092;50.874;7.024;2023-07-13T06:30:26;18.00;71.90
30889;DHT22;51092;50.874;7.024;2023-07-13T06:31:28;17.90;72.40
30889;DHT22;51092;50.874;7.024;2023-07-13T06:32:30;18.00;71.80
30889;DHT22;51092;50.874;7.024;2023-07-13T06:33:32;18.00;71.50
30889;DHT22;51092;50.874;7.024;2023-07-13T06:34:35;18.00;71.60
30889;DHT22;51092;50.874;7.024;2023-07-13T06:35:38;18.00;71.70
30889;DHT22;51092;50.874;7.024;2023-07-13T06:36:39;18.10;71.60
30889;DHT22;51092;50.874;7.024;2023-07-13T06:37:42;18.20;71.20
30889;DHT22;51092;50.874;7.024;2023-07-13T06:38:43;18.30;70.90
30889;DHT22;51092;50.874;7.024;2023-07-13T06:39:45;18.30;70.80
30889;DHT22;51092;50.874;7.024;2023-07-13T06:40:47;18.20;70.90
30889;DHT22;51092;50.874;7.024;2023-07-13T06:41:49;18.20;71.10